Time;durP1;ratioP1;P1;durP2;ratioP2;P2;SDS_P1;SDS_P2;PMS_P1;PMS_P2;Temp;Humidity;BMP_temperature;BMP_pressure;BME280_temperature;BME280_humidity;BME280_pressure;Samples;Min_cycle;Max_cycle;Signal;HPM_P1;HPM_P2
2023/06/23 04:14:48;;;;;;;23.30;21.80;;;19.70;99.90;;;;;;5504007;23;20524;-73
2023/06/23 04:17:17;;;;;;;24.07;22.77;;;19.70;99.90;;;;;;4945094;29;20465;-74
2023/06/23 04:19:47;;;;;;;23.43;22.23;;;19.80;99.90;;;;;;4941921;29;20472;-74
2023/06/23 04:22:18;;;;;;;25.00;23.40;;;19.90;99.90;;;;;;4942447;29;20451;-74
2023/06/23 04:24:46;;;;;;;24.03;22.70;;;20.00;99.90;;;;;;4941934;29;20469;-74
2023/06/23 04:27:16;;;;;;;24.17;22.57;;;20.00;99.90;;;;;;4942649;29;20456;-73
2023/06/23 04:29:47;;;;;;;23.97;22.50;;;20.10;99.90;;;;;;4943837;29;20685;-74
2023/06/23 04:32:14;;;;;;;22.97;21.60;;;20.10;99.90;;;;;;4942970;29;20450;-74
2023/06/23 04:34:42;;;;;;;22.93;21.63;;;20.20;99.90;;;;;;4941587;29;20477;-73
2023/06/23 04:37:13;;;;;;;23.83;22.33;;;20.30;99.90;;;;;;4943246;29;20441;-74
2023/06/23 04:39:46;;;;;;;21.40;20.10;;;20.30;99.90;;;;;;4941266;29;20454;-74
2023/06/23 04:42:16;;;;;;;24.40;22.73;;;20.40;99.90;;;;;;4933918;29;21007;-75
2023/06/23 04:44:49;;;;;;;24.27;22.57;;;20.30;99.90;;;;;;4933820;29;20453;-75
2023/06/23 04:47:21;;;;;;;22.97;21.70;;;20.40;99.90;;;;;;4933839;29;20493;-77
2023/06/23 04:49:53;;;;;;;25.17;23.40;;;20.50;99.90;;;;;;4933772;29;20529;-75
2023/06/23 04:52:22;;;;;;;25.00;23.10;;;20.60;99.90;;;;;;4936100;29;20830;-75
2023/06/23 04:54:52;;;;;;;25.07;23.47;;;20.70;99.90;;;;;;4937678;29;20477;-77
2023/06/23 04:57:22;;;;;;;23.80;22.40;;;20.80;99.90;;;;;;4937641;29;20936;-72
2023/06/23 04:59:56;;;;;;;23.47;22.07;;;21.00;99.90;;;;;;4937408;29;20800;-74
2023/06/23 05:02:25;;;;;;;23.87;22.37;;;21.10;99.90;;;;;;4937639;29;20461;-75
2023/06/23 05:04:53;;;;;;;23.80;22.20;;;20.90;99.90;;;;;;4937776;29;20530;-74
2023/06/23 05:07:22;;;;;;;23.73;22.23;;;20.80;99.90;;;;;;4937573;29;20460;-74
2023/06/23 05:09:51;;;;;;;24.73;23.20;;;20.80;99.90;;;;;;4937438;29;20449;-74
2023/06/23 05:12:20;;;;;;;25.47;23.73;;;20.80;99.90;;;;;;4937250;29;20945;-74
2023/06/23 05:14:50;;;;;;;24.03;22.30;;;20.80;99.90;;;;;;4936959;29;21007;-74
2023/06/23 05:17:19;;;;;;;26.17;24.47;;;20.80;99.90;;;;;;4937432;29;20465;-75
2023/06/23 05:19:48;;;;;;;24.53;23.00;;;20.80;99.90;;;;;;4937405;29;20480;-73
2023/06/23 05:22:18;;;;;;;24.90;23.40;;;20.80;99.90;;;;;;4937144;29;20445;-72
2023/06/23 05:24:49;;;;;;;25.27;23.57;;;20.90;99.90;;;;;;4937182;29;20534;-73
2023/06/23 05:27:20;;;;;;;29.00;26.90;;;20.80;99.90;;;;;;4937204;29;20461;-75
2023/06/23 05:29:49;;;;;;;25.87;24.30;;;20.70;99.90;;;;;;4937129;29;20460;-74
2023/06/23 05:32:19;;;;;;;26.40;24.67;;;20.90;99.90;;;;;;4937025;29;20951;-73
2023/06/23 05:34:49;;;;;;;28.13;25.77;;;20.60;99.90;;;;;;4937039;29;20493;-74
2023/06/23 05:37:18;;;;;;;27.33;25.53;;;20.80;99.90;;;;;;4936880;29;20955;-73
2023/06/23 05:39:46;;;;;;;26.90;25.20;;;20.90;99.90;;;;;;4935214;29;20457;-73
2023/06/23 05:42:12;;;;;;;26.50;24.67;;;20.90;99.90;;;;;;4936838;29;20620;-72
2023/06/23 05:44:39;;;;;;;26.70;25.00;;;21.20;99.90;;;;;;4936738;29;20453;-72
2023/06/23 05:47:11;;;;;;;26.67;24.83;;;21.40;99.90;;;;;;4936980;29;20449;-72
2023/06/23 05:49:43;;;;;;;28.20;25.90;;;21.40;99.90;;;;;;4936989;29;20453;-72
2023/06/23 05:52:14;;;;;;;27.60;25.77;;;21.40;99.90;;;;;;4936550;29;20954;-71
2023/06/23 05:54:45;;;;;;;29.13;27.17;;;21.40;99.90;;;;;;4936537;29;20493;-71
2023/06/23 05:57:22;;;;;;;28.77;26.77;;;21.50;99.90;;;;;;4936652;29;20457;-72
2023/06/23 05:59:57;;;;;;;27.53;25.63;;;21.40;99.90;;;;;;4936442;29;20461;-72
2023/06/23 06:02:28;;;;;;;28.87;26.57;;;21.50;99.90;;;;;;4936373;29;20456;-72
2023/06/23 06:05:00;;;;;;;27.63;25.73;;;21.50;99.90;;;;;;4936357;29;20816;-74
2023/06/23 06:07:28;;;;;;;32.13;29.63;;;21.60;99.90;;;;;;4936530;29;20461;-72
2023/06/23 06:09:57;;;;;;;27.50;25.40;;;21.80;99.90;;;;;;4936211;29;20458;-73
2023/06/23 06:12:25;;;;;;;29.83;27.50;;;21.90;99.90;;;;;;4936203;29;20461;-73
2023/06/23 06:14:54;;;;;;;29.70;27.43;;;22.00;99.90;;;;;;4935987;29;20496;-73
2023/06/23 06:17:23;;;;;;;29.83;27.63;;;21.90;99.90;;;;;;4936004;29;20797;-73
2023/06/23 06:19:53;;;;;;;28.63;26.63;;;22.10;99.90;;;;;;4934434;29;20900;-73
2023/06/23 06:22:22;;;;;;;27.80;25.70;;;22.10;99.90;;;;;;4936200;29;20936;-73
2023/06/23 06:24:51;;;;;;;28.67;26.67;;;22.30;99.90;;;;;;4936084;29;20453;-73
2023/06/23 06:27:19;;;;;;;27.07;24.97;;;22.40;99.90;;;;;;4936092;29;20453;-72
2023/06/23 06:29:48;;;;;;;27.60;25.83;;;22.60;99.90;;;;;;4934104;29;20544;-72
2023/06/23 06:32:15;;;;;;;28.40;26.40;;;23.00;99.90;;;;;;4935921;29;20450;-73
2023/06/23 06:34:44;;;;;;;27.03;25.17;;;23.20;99.90;;;;;;4935735;29;20531;-74
2023/06/23 06:37:12;;;;;;;27.40;25.50;;;23.70;99.90;;;;;;4935605;29;20468;-75
2023/06/23 06:39:42;;;;;;;26.83;25.00;;;24.10;99.90;;;;;;4934071;29;20488;-74
2023/06/23 06:42:09;;;;;;;25.50;23.70;;;24.20;99.90;;;;;;4935725;29;20472;-74
2023/06/23 06:44:36;;;;;;;25.10;23.60;;;24.40;99.90;;;;;;4935793;29;20457;-74
2023/06/23 06:47:05;;;;;;;25.70;23.80;;;24.40;99.90;;;;;;4935584;29;20461;-73
2023/06/23 06:49:34;;;;;;;24.23;22.73;;;24.20;99.90;;;;;;4933786;29;20458;-72
2023/06/23 06:52:03;;;;;;;25.30;23.30;;;23.90;99.90;;;;;;4935475;29;20460;-72
2023/06/23 06:54:30;;;;;;;26.57;24.77;;;23.70;99.90;;;;;;4935260;29;20493;-72
2023/06/23 06:56:59;;;;;;;27.43;25.43;;;23.50;99.90;;;;;;4935445;29;20457;-72
2023/06/23 06:59:26;;;;;;;26.37;24.63;;;23.40;99.90;;;;;;4935406;29;20462;-73
2023/06/23 07:01:53;;;;;;;27.83;25.93;;;23.10;99.90;;;;;;4935285;29;20457;-73
2023/06/23 07:04:20;;;;;;;25.60;23.80;;;23.00;99.90;;;;;;4935262;29;20825;-73
2023/06/23 07:06:52;;;;;;;25.63;23.90;;;23.20;99.90;;;;;;4934970;29;20481;-72
2023/06/23 07:09:19;;;;;;;26.67;24.67;;;23.40;99.90;;;;;;4935086;29;20502;-73
2023/06/23 07:11:47;;;;;;;27.77;25.80;;;23.40;99.90;;;;;;4934981;29;20893;-73
2023/06/23 07:14:16;;;;;;;27.20;25.10;;;23.30;99.90;;;;;;4933824;29;20504;-72
2023/06/23 07:16:42;;;;;;;26.40;24.33;;;23.30;99.90;;;;;;4934801;29;20819;-73
2023/06/23 07:19:09;;;;;;;26.50;24.43;;;23.40;99.90;;;;;;4934745;29;20460;-73
2023/06/23 07:21:36;;;;;;;25.83;23.83;;;23.10;99.90;;;;;;4934706;29;20457;-73
2023/06/23 07:24:02;;;;;;;25.80;24.00;;;22.70;99.90;;;;;;4934720;29;20460;-74
2023/06/23 07:26:29;;;;;;;25.40;23.40;;;22.60;99.90;;;;;;4934935;29;20556;-73
2023/06/23 07:28:56;;;;;;;25.00;23.00;;;22.70;99.90;;;;;;4934768;29;20457;-74
2023/06/23 07:31:25;;;;;;;25.00;22.97;;;23.00;99.90;;;;;;4934763;29;20453;-74
2023/06/23 07:33:52;;;;;;;24.20;22.30;;;22.90;99.90;;;;;;4934672;29;20568;-74
2023/06/23 07:36:19;;;;;;;22.77;21.37;;;23.00;99.90;;;;;;4931808;29;20457;-73
2023/06/23 07:38:45;;;;;;;23.77;22.03;;;23.00;99.90;;;;;;4933991;29;20453;-74
2023/06/23 07:41:12;;;;;;;24.77;22.77;;;22.90;99.90;;;;;;4932119;29;20889;-73
2023/06/23 07:43:41;;;;;;;23.97;22.43;;;22.80;99.90;;;;;;4934260;29;20461;-73
2023/06/23 07:46:08;;;;;;;24.33;22.80;;;22.90;99.90;;;;;;4934035;29;20959;-73
2023/06/23 07:48:36;;;;;;;25.30;23.50;;;22.70;99.90;;;;;;4934169;29;20503;-73
2023/06/23 07:51:03;;;;;;;24.27;22.67;;;22.70;99.90;;;;;;4934184;29;20468;-73
2023/06/23 07:53:30;;;;;;;22.87;21.27;;;22.80;99.90;;;;;;4934297;29;20465;-73
2023/06/23 07:55:56;;;;;;;22.70;20.93;;;22.70;99.90;;;;;;4933953;29;20998;-72
2023/06/23 07:58:23;;;;;;;22.80;21.40;;;22.80;99.90;;;;;;4933947;29;20947;-73
2023/06/23 08:00:51;;;;;;;22.40;20.70;;;22.90;99.90;;;;;;4934343;29;20808;-73
2023/06/23 08:03:18;;;;;;;22.83;20.93;;;23.00;99.90;;;;;;4934009;29;20509;-73
2023/06/23 08:05:46;;;;;;;21.30;19.70;;;22.80;99.90;;;;;;4933626;29;20580;-73
2023/06/23 08:08:13;;;;;;;21.37;20.00;;;22.60;99.90;;;;;;4933587;29;20589;-73
2023/06/23 08:10:39;;;;;;;23.70;21.70;;;22.70;99.90;;;;;;4931743;29;20464;-72
2023/06/23 08:13:06;;;;;;;22.07;20.47;;;22.90;99.90;;;;;;4933858;29;20477;-73
2023/06/23 08:15:32;;;;;;;21.77;20.27;;;22.90;99.90;;;;;;4933365;29;20497;-73
2023/06/23 08:17:59;;;;;;;20.10;18.60;;;23.10;99.90;;;;;;4933617;29;20468;-73
2023/06/23 08:20:26;;;;;;;21.27;19.87;;;23.00;99.90;;;;;;4933527;29;20457;-72
2023/06/23 08:22:54;;;;;;;21.00;19.50;;;23.30;99.90;;;;;;4933660;29;20468;-72
2023/06/23 08:25:21;;;;;;;20.73;19.30;;;23.30;99.90;;;;;;4933922;29;20544;-72
2023/06/23 08:27:47;;;;;;;20.30;18.77;;;23.50;99.90;;;;;;4932962;29;20543;-73
2023/06/23 08:30:16;;;;;;;20.70;19.40;;;23.60;99.90;;;;;;4933499;29;20465;-72
2023/06/23 08:32:42;;;;;;;21.50;20.10;;;23.50;99.90;;;;;;4933183;29;20779;-73
2023/06/23 08:35:09;;;;;;;23.27;20.77;;;23.60;99.90;;;;;;4933319;29;20492;-73
2023/06/23 08:37:36;;;;;;;21.63;20.00;;;23.60;99.90;;;;;;4933550;29;20454;-72
2023/06/23 08:40:05;;;;;;;19.80;18.43;;;23.80;99.90;;;;;;4933444;29;20461;-73
2023/06/23 08:42:33;;;;;;;21.40;20.10;;;24.00;99.90;;;;;;4932979;29;20460;-73
2023/06/23 08:45:03;;;;;;;20.63;19.43;;;24.10;99.90;;;;;;4933046;29;20463;-73
2023/06/23 08:47:31;;;;;;;20.87;19.27;;;24.80;98.70;;;;;;4933383;29;20543;-73
2023/06/23 08:49:58;;;;;;;20.57;19.37;;;25.30;97.90;;;;;;4933468;29;20453;-73
2023/06/23 08:52:25;;;;;;;20.47;19.17;;;24.80;97.80;;;;;;4933416;29;20465;-73
2023/06/23 08:54:52;;;;;;;20.10;18.70;;;25.30;97.50;;;;;;4933036;29;20998;-73
2023/06/23 08:57:21;;;;;;;21.30;20.10;;;25.80;96.40;;;;;;4933244;29;20457;-73
2023/06/23 08:59:48;;;;;;;20.67;19.23;;;26.40;95.40;;;;;;4933581;29;20489;-74
2023/06/23 09:02:15;;;;;;;21.20;19.90;;;26.30;94.80;;;;;;4933268;29;20449;-73
2023/06/23 09:04:42;;;;;;;20.80;19.50;;;26.30;94.80;;;;;;4933182;29;20464;-73
2023/06/23 09:07:09;;;;;;;22.20;20.53;;;26.10;95.20;;;;;;4933277;29;20466;-73
2023/06/23 09:09:35;;;;;;;20.87;19.60;;;26.10;94.60;;;;;;4932183;29;20453;-73
2023/06/23 09:12:02;;;;;;;21.53;20.30;;;26.50;94.40;;;;;;4932868;29;20449;-72
2023/06/23 09:14:30;;;;;;;21.43;20.13;;;27.20;92.90;;;;;;4932571;29;20497;-74
2023/06/23 09:16:58;;;;;;;21.60;20.40;;;27.70;92.20;;;;;;4927823;29;20485;-74
2023/06/23 09:19:25;;;;;;;22.43;21.03;;;28.70;90.60;;;;;;4933251;29;20470;-74
2023/06/23 09:21:52;;;;;;;21.77;20.40;;;28.70;89.00;;;;;;4932715;29;20975;-74
2023/06/23 09:24:19;;;;;;;20.80;19.67;;;28.20;88.90;;;;;;4933344;29;20839;-73
2023/06/23 09:26:48;;;;;;;20.80;19.67;;;27.60;90.10;;;;;;4933229;29;20995;-73
2023/06/23 09:29:17;;;;;;;22.13;20.30;;;28.00;90.10;;;;;;4933213;29;20457;-73
2023/06/23 09:31:47;;;;;;;21.37;20.10;;;28.90;88.40;;;;;;4933271;29;20461;-72
2023/06/23 09:34:24;;;;;;;20.30;19.10;;;29.10;85.50;;;;;;4932733;29;20564;-73
2023/06/23 09:36:52;;;;;;;19.83;18.83;;;28.60;87.10;;;;;;4933919;28;20828;-74
2023/06/23 09:39:20;;;;;;;20.20;18.90;;;28.60;87.80;;;;;;4945103;28;20485;-74
2023/06/23 09:41:47;;;;;;;20.27;19.17;;;28.90;85.20;;;;;;4945474;29;20460;-74
2023/06/23 09:44:15;;;;;;;20.23;19.00;;;29.50;83.40;;;;;;4955669;29;20460;-75
2023/06/23 09:46:43;;;;;;;19.90;18.77;;;30.50;80.20;;;;;;4955627;29;20519;-74
2023/06/23 09:49:11;;;;;;;20.60;19.50;;;30.70;77.60;;;;;;4955654;29;20810;-75
2023/06/23 09:51:38;;;;;;;21.00;19.90;;;30.20;78.00;;;;;;4955240;29;20456;-74
2023/06/23 09:54:05;;;;;;;21.23;19.90;;;28.80;81.50;;;;;;4955214;28;20973;-75
2023/06/23 09:56:31;;;;;;;19.10;18.00;;;27.70;85.00;;;;;;4955184;29;20488;-74
2023/06/23 09:58:58;;;;;;;19.77;18.77;;;27.60;84.30;;;;;;4954898;29;20464;-74
2023/06/23 10:01:25;;;;;;;19.00;18.00;;;28.40;80.70;;;;;;4954910;29;20456;-75
2023/06/23 10:03:53;;;;;;;19.10;18.10;;;28.90;80.20;;;;;;4954975;29;20461;-77
2023/06/23 10:06:27;;;;;;;18.80;17.90;;;29.90;78.20;;;;;;4954913;29;20552;-76
2023/06/23 10:08:55;;;;;;;18.30;17.03;;;30.20;75.30;;;;;;4955227;28;20486;-74
2023/06/23 10:11:30;;;;;;;18.03;17.23;;;29.10;76.50;;;;;;4954888;28;20830;-77
2023/06/23 10:13:58;;;;;;;17.67;16.87;;;29.60;75.20;;;;;;4954548;28;20884;-75
2023/06/23 10:16:25;;;;;;;18.43;17.53;;;30.50;74.20;;;;;;4949489;29;20863;-75
2023/06/23 10:18:52;;;;;;;18.77;17.87;;;30.40;73.70;;;;;;4954579;29;20464;-74
2023/06/23 10:21:20;;;;;;;17.30;16.43;;;29.80;72.20;;;;;;4954624;29;20452;-75
2023/06/23 10:23:49;;;;;;;17.90;16.70;;;29.70;73.20;;;;;;4954659;29;20460;-75
2023/06/23 10:26:17;;;;;;;18.93;17.93;;;29.80;73.30;;;;;;4954552;29;20947;-74
2023/06/23 10:28:47;;;;;;;18.50;17.60;;;30.20;72.10;;;;;;4954927;29;20806;-75
2023/06/23 10:31:14;;;;;;;17.37;16.47;;;31.00;70.10;;;;;;4954522;29;20817;-77
2023/06/23 10:33:42;;;;;;;24.47;17.37;;;30.10;71.20;;;;;;4954261;29;20475;-74
2023/06/23 10:36:14;;;;;;;19.10;18.00;;;29.60;71.70;;;;;;4954154;29;20499;-74
2023/06/23 10:38:46;;;;;;;18.67;17.70;;;29.50;72.10;;;;;;4954370;29;20453;-74
2023/06/23 10:41:15;;;;;;;18.07;17.17;;;28.90;73.80;;;;;;4954027;29;20461;-75
2023/06/23 10:43:46;;;;;;;19.00;17.90;;;28.20;77.00;;;;;;4954312;29;20457;-73
2023/06/23 10:46:13;;;;;;;21.03;19.53;;;27.70;79.20;;;;;;4952806;29;20464;-75
2023/06/23 10:48:41;;;;;;;19.63;18.63;;;27.30;81.40;;;;;;4952842;28;20445;-73
2023/06/23 10:51:09;;;;;;;20.00;19.00;;;26.80;82.30;;;;;;4953998;29;20460;-72
2023/06/23 10:53:44;;;;;;;19.33;18.43;;;26.20;83.50;;;;;;4954359;29;20540;-74
2023/06/23 10:56:11;;;;;;;20.17;18.90;;;25.90;86.10;;;;;;4954302;29;20499;-72
2023/06/23 10:58:49;;;;;;;19.27;18.27;;;26.10;86.60;;;;;;4954347;29;20736;-73
2023/06/23 11:01:16;;;;;;;19.73;18.73;;;26.00;87.90;;;;;;4954433;29;20945;-76
2023/06/23 11:03:43;;;;;;;19.63;18.53;;;26.40;87.40;;;;;;4954139;29;20445;-73
2023/06/23 11:06:11;;;;;;;19.03;18.03;;;27.10;85.40;;;;;;4954276;29;20449;-73
2023/06/23 11:08:39;;;;;;;19.90;18.80;;;28.20;82.10;;;;;;4954186;29;20512;-73
2023/06/23 11:11:07;;;;;;;17.00;16.23;;;28.90;76.50;;;;;;4953858;29;20468;-72
2023/06/23 11:13:41;;;;;;;18.30;17.40;;;29.80;73.50;;;;;;4953553;28;20481;-73
2023/06/23 11:16:15;;;;;;;17.93;17.07;;;30.10;71.60;;;;;;4953406;29;20582;-73
2023/06/23 11:18:49;;;;;;;18.30;17.40;;;29.60;71.30;;;;;;4950307;29;20457;-74
2023/06/23 11:21:18;;;;;;;17.93;17.00;;;28.70;73.00;;;;;;4953360;29;20451;-75
2023/06/23 11:24:08;;;;;;;19.40;18.40;;;27.90;76.90;;;;;;4953530;29;20452;-73
2023/06/23 11:26:34;;;;;;;18.47;17.47;;;27.00;82.00;;;;;;4953966;28;20487;-73
2023/06/23 11:29:01;;;;;;;16.50;15.80;;;27.70;80.50;;;;;;4953535;29;20457;-74
2023/06/23 11:31:30;;;;;;;18.50;17.60;;;28.70;77.60;;;;;;4953587;29;20460;-73
2023/06/23 11:34:01;;;;;;;16.40;15.60;;;29.70;75.60;;;;;;4953413;29;20559;-73
2023/06/23 11:36:29;;;;;;;17.53;16.70;;;29.70;72.80;;;;;;4953476;29;20494;-73
2023/06/23 11:38:57;;;;;;;16.60;15.70;;;30.10;72.90;;;;;;4953355;29;20461;-73
2023/06/23 11:41:25;;;;;;;17.93;16.97;;;30.60;70.20;;;;;;4953577;29;20833;-72
2023/06/23 11:43:57;;;;;;;18.57;16.93;;;31.10;66.80;;;;;;4953548;29;20548;-73
2023/06/23 11:46:24;;;;;;;19.67;18.57;;;31.20;65.80;;;;;;4953646;29;20492;-72
2023/06/23 11:48:53;;;;;;;18.07;17.30;;;31.80;65.40;;;;;;4953527;28;20452;-73
2023/06/23 11:51:21;;;;;;;17.37;16.27;;;31.80;65.20;;;;;;4953405;29;20837;-73
2023/06/23 11:53:50;;;;;;;18.00;17.20;;;31.90;65.20;;;;;;4953389;29;20610;-72
2023/06/23 11:56:18;;;;;;;17.17;16.27;;;31.60;64.50;;;;;;4953217;29;20484;-73
2023/06/23 11:58:50;;;;;;;16.10;15.40;;;30.70;65.40;;;;;;4953087;29;20452;-72
2023/06/23 12:01:19;;;;;;;15.60;14.87;;;29.90;64.90;;;;;;4953108;28;21033;-73
2023/06/23 12:03:46;;;;;;;15.23;14.43;;;30.50;65.10;;;;;;4953145;29;20461;-72
2023/06/23 12:06:16;;;;;;;16.17;15.33;;;30.10;64.90;;;;;;4953374;29;20460;-72
2023/06/23 12:08:43;;;;;;;17.83;16.93;;;29.40;67.90;;;;;;4952939;29;20456;-73
2023/06/23 12:11:10;;;;;;;18.23;17.10;;;28.60;71.20;;;;;;4952804;29;20452;-74
2023/06/23 12:13:38;;;;;;;18.10;17.07;;;28.00;72.80;;;;;;4952958;28;20483;-73
2023/06/23 12:16:06;;;;;;;18.93;17.47;;;27.90;73.60;;;;;;4952908;29;20492;-73
2023/06/23 12:18:33;;;;;;;18.97;17.73;;;28.40;74.10;;;;;;4952862;29;20825;-72
2023/06/23 12:21:00;;;;;;;18.53;17.53;;;29.70;72.20;;;;;;4953088;28;20496;-74
2023/06/23 12:23:32;;;;;;;18.27;17.17;;;30.80;69.60;;;;;;4952786;29;20468;-73
2023/06/23 12:25:59;;;;;;;19.43;18.43;;;31.30;67.90;;;;;;4952790;29;20456;-73
2023/06/23 12:28:30;;;;;;;18.70;17.80;;;31.50;65.60;;;;;;4952710;29;20465;-73
2023/06/23 12:30:56;;;;;;;17.20;16.17;;;32.10;64.60;;;;;;4952720;28;20508;-73
2023/06/23 12:33:25;;;;;;;18.20;16.90;;;31.10;60.80;;;;;;4947536;29;21048;-73
2023/06/23 12:35:57;;;;;;;17.90;16.70;;;30.10;64.20;;;;;;4952896;29;20484;-73
2023/06/23 12:38:24;;;;;;;18.00;17.10;;;29.10;66.70;;;;;;4952597;29;20463;-73
2023/06/23 12:40:53;;;;;;;18.50;17.30;;;28.40;69.10;;;;;;4952500;29;20463;-73
2023/06/23 12:43:20;;;;;;;17.07;16.13;;;27.80;71.80;;;;;;4952612;29;20962;-73
2023/06/23 12:45:48;;;;;;;18.20;17.30;;;27.50;74.70;;;;;;4952582;29;20449;-72
2023/06/23 12:48:15;;;;;;;16.70;15.90;;;28.20;75.00;;;;;;4952575;28;20453;-73
2023/06/23 12:50:42;;;;;;;16.30;15.50;;;28.80;72.90;;;;;;4952352;29;20452;-72
2023/06/23 12:53:09;;;;;;;18.00;17.10;;;29.80;70.80;;;;;;4952524;29;20456;-73
2023/06/23 12:55:36;;;;;;;18.13;17.33;;;30.60;68.20;;;;;;4952542;29;20503;-73
2023/06/23 12:58:04;;;;;;;18.33;17.33;;;30.90;66.20;;;;;;4952418;29;20456;-73
2023/06/23 13:00:30;;;;;;;18.30;17.40;;;30.40;65.50;;;;;;4952181;29;20460;-73
2023/06/23 13:02:57;;;;;;;17.53;16.73;;;29.50;67.50;;;;;;4951886;29;20453;-75
2023/06/23 13:05:25;;;;;;;18.50;17.70;;;29.00;69.10;;;;;;4952026;29;20551;-72
2023/06/23 13:07:52;;;;;;;19.50;18.50;;;28.30;71.30;;;;;;4952145;29;20453;-73
2023/06/23 13:10:19;;;;;;;17.33;16.53;;;28.30;72.00;;;;;;4952119;29;20460;-73
2023/06/23 13:12:45;;;;;;;18.77;17.90;;;28.70;71.50;;;;;;4953353;28;20468;-72
2023/06/23 13:15:13;;;;;;;18.23;17.33;;;29.10;71.60;;;;;;4955948;29;20491;-72
2023/06/23 13:17:40;;;;;;;18.20;17.40;;;29.80;69.10;;;;;;4955677;29;20471;-72
2023/06/23 13:20:08;;;;;;;18.60;17.70;;;30.70;67.30;;;;;;4955830;29;20448;-72
2023/06/23 13:22:34;;;;;;;16.77;16.03;;;31.30;64.60;;;;;;4955804;28;20456;-72
2023/06/23 13:25:01;;;;;;;16.30;15.57;;;31.50;61.00;;;;;;4955664;29;20459;-73
2023/06/23 13:27:28;;;;;;;16.50;15.60;;;31.20;61.90;;;;;;4955659;29;20451;-72
2023/06/23 13:29:54;;;;;;;17.80;16.80;;;31.70;60.10;;;;;;4955973;29;20448;-72
2023/06/23 13:32:22;;;;;;;16.03;15.13;;;31.90;59.00;;;;;;4955783;29;20578;-72
2023/06/23 13:34:49;;;;;;;15.90;15.10;;;31.70;58.20;;;;;;4955663;29;20945;-73
2023/06/23 13:37:16;;;;;;;16.93;16.20;;;32.00;58.80;;;;;;4955584;29;20861;-72
2023/06/23 13:39:43;;;;;;;16.10;15.40;;;33.00;54.50;;;;;;4952604;29;20461;-72
2023/06/23 13:42:09;;;;;;;15.83;15.23;;;33.10;53.70;;;;;;4944693;29;20445;-72
2023/06/23 13:44:36;;;;;;;16.50;15.80;;;31.80;55.50;;;;;;4945025;29;20850;-72
2023/06/23 13:47:03;;;;;;;15.67;14.97;;;31.50;56.40;;;;;;4945590;29;20935;-72
2023/06/23 13:49:31;;;;;;;16.90;16.17;;;31.20;56.50;;;;;;4941014;28;21026;-72
2023/06/23 13:51:58;;;;;;;16.43;15.73;;;29.70;57.80;;;;;;4944764;29;20468;-72
2023/06/23 13:54:26;;;;;;;15.80;14.87;;;28.50;59.70;;;;;;4945145;29;20549;-72
2023/06/23 13:56:53;;;;;;;16.37;15.67;;;27.90;61.30;;;;;;4946462;29;20516;-71
2023/06/23 13:59:19;;;;;;;15.67;14.97;;;27.50;62.40;;;;;;4944805;29;20524;-72
2023/06/23 14:01:50;;;;;;;15.93;15.03;;;27.30;63.20;;;;;;4944651;29;20448;-72
2023/06/23 14:04:18;;;;;;;15.13;14.53;;;26.90;63.40;;;;;;4944208;29;20991;-71
2023/06/23 14:06:46;;;;;;;15.40;14.70;;;26.70;63.70;;;;;;4946403;29;20469;-72
2023/06/23 14:09:13;;;;;;;15.40;14.60;;;26.80;64.10;;;;;;4943948;29;20952;-72
2023/06/23 14:11:39;;;;;;;15.13;14.33;;;26.80;64.30;;;;;;4943558;29;20456;-72
2023/06/23 14:14:06;;;;;;;15.27;14.47;;;26.70;64.40;;;;;;4943177;29;20472;-72
2023/06/23 14:16:33;;;;;;;16.10;15.07;;;26.80;65.00;;;;;;4935274;29;20496;-72
2023/06/23 14:19:01;;;;;;;15.30;14.63;;;27.20;64.10;;;;;;4935197;29;20472;-72
2023/06/23 14:21:28;;;;;;;15.50;14.63;;;27.70;63.30;;;;;;4933010;29;20504;-73
2023/06/23 14:23:56;;;;;;;15.13;14.33;;;28.20;62.70;;;;;;4934217;29;20446;-72
2023/06/23 14:26:22;;;;;;;16.47;15.67;;;28.80;61.50;;;;;;4935177;29;20446;-72
2023/06/23 14:28:49;;;;;;;15.10;14.40;;;29.00;60.40;;;;;;4935365;29;20449;-72
2023/06/23 14:31:16;;;;;;;14.57;13.87;;;28.60;59.50;;;;;;4935389;29;20541;-72
2023/06/23 14:33:44;;;;;;;15.00;14.20;;;29.10;59.30;;;;;;4935160;29;20450;-72
2023/06/23 14:36:10;;;;;;;16.10;15.10;;;29.60;59.50;;;;;;4934808;29;20513;-72
2023/06/23 14:38:37;;;;;;;14.00;13.30;;;30.70;58.00;;;;;;4935184;29;20457;-73
2023/06/23 14:41:05;;;;;;;15.90;15.00;;;30.70;57.40;;;;;;4935070;29;20810;-72
2023/06/23 14:43:32;;;;;;;16.27;15.47;;;30.30;57.20;;;;;;4934826;29;20936;-72
2023/06/23 14:45:59;;;;;;;16.53;15.70;;;29.70;58.70;;;;;;4934892;29;20446;-72
2023/06/23 14:48:25;;;;;;;16.03;15.33;;;28.80;59.20;;;;;;4934925;29;20458;-72
2023/06/23 14:50:52;;;;;;;15.37;14.73;;;28.40;60.50;;;;;;4934875;29;20453;-72
2023/06/23 14:53:19;;;;;;;14.70;14.10;;;27.70;62.70;;;;;;4934700;29;20456;-72
2023/06/23 14:55:46;;;;;;;15.40;14.70;;;27.60;62.40;;;;;;4934081;29;20449;-71
2023/06/23 14:58:14;;;;;;;15.33;14.63;;;27.80;62.40;;;;;;4931174;29;20850;-73
2023/06/23 15:00:40;;;;;;;16.97;15.10;;;28.00;60.60;;;;;;4931581;29;20439;-72
2023/06/23 15:03:08;;;;;;;15.10;14.07;;;28.40;60.30;;;;;;4925023;29;20446;-73
2023/06/23 15:05:36;;;;;;;15.83;15.13;;;28.50;60.20;;;;;;4925382;29;20456;-73
2023/06/23 15:08:04;;;;;;;16.10;15.30;;;28.50;59.80;;;;;;4924725;29;20454;-72
2023/06/23 15:10:31;;;;;;;15.57;14.87;;;28.20;60.30;;;;;;4924188;29;20464;-73
2023/06/23 15:12:58;;;;;;;16.87;16.07;;;28.50;60.60;;;;;;4923748;29;20470;-72
2023/06/23 15:15:26;;;;;;;15.67;15.07;;;28.60;60.60;;;;;;4937306;29;20485;-73
2023/06/23 15:17:53;;;;;;;16.17;15.47;;;28.70;60.00;;;;;;4945044;29;20477;-72
2023/06/23 15:20:19;;;;;;;16.67;15.90;;;28.20;60.60;;;;;;4943220;29;20454;-72
2023/06/23 15:22:46;;;;;;;16.90;15.93;;;28.10;60.70;;;;;;4943450;29;20451;-72
2023/06/23 15:25:13;;;;;;;15.97;14.97;;;27.60;61.10;;;;;;4947183;29;20446;-72
2023/06/23 15:27:40;;;;;;;15.60;14.90;;;27.30;61.30;;;;;;4953408;29;20448;-71
2023/06/23 15:30:08;;;;;;;16.30;15.40;;;27.10;61.60;;;;;;4953457;29;20452;-72
2023/06/23 15:32:36;;;;;;;15.80;15.13;;;27.10;61.80;;;;;;4953946;29;20548;-72
2023/06/23 15:35:03;;;;;;;15.73;15.07;;;27.10;61.80;;;;;;4952819;28;20468;-72
2023/06/23 15:37:30;;;;;;;16.13;15.43;;;27.00;62.00;;;;;;4952821;29;20851;-71
2023/06/23 15:39:58;;;;;;;16.20;15.50;;;26.90;62.50;;;;;;4952810;29;20528;-72
2023/06/23 15:42:25;;;;;;;16.03;15.00;;;27.00;63.10;;;;;;4952992;28;20972;-72
2023/06/23 15:44:51;;;;;;;15.40;14.70;;;26.90;63.60;;;;;;4953028;29;20456;-72
2023/06/23 15:47:18;;;;;;;16.30;15.60;;;26.70;63.60;;;;;;4952926;29;20460;-72
2023/06/23 15:49:46;;;;;;;15.77;15.07;;;26.80;64.00;;;;;;4942084;29;20853;-72
2023/06/23 15:52:13;;;;;;;16.77;15.73;;;26.80;63.40;;;;;;4943693;29;20444;-72
2023/06/23 15:54:40;;;;;;;16.53;15.63;;;27.00;63.60;;;;;;4942242;29;20453;-72
2023/06/23 15:57:09;;;;;;;16.63;15.93;;;27.20;63.80;;;;;;4937069;29;20854;-72
2023/06/23 15:59:36;;;;;;;17.30;16.30;;;27.50;63.00;;;;;;4941991;29;20508;-73
2023/06/23 16:02:03;;;;;;;15.43;14.73;;;27.30;62.30;;;;;;4942555;29;20939;-73
2023/06/23 16:04:30;;;;;;;15.90;15.20;;;27.30;62.90;;;;;;4943137;29;20456;-72
2023/06/23 16:06:58;;;;;;;16.93;16.03;;;27.50;62.00;;;;;;4943173;29;20454;-73
2023/06/23 16:09:26;;;;;;;15.83;15.10;;;27.40;60.80;;;;;;4942751;29;20453;-72
2023/06/23 16:11:52;;;;;;;15.80;14.93;;;27.40;60.30;;;;;;4938833;29;20978;-72
2023/06/23 16:14:19;;;;;;;16.27;15.47;;;27.50;60.90;;;;;;4933485;29;20854;-72
2023/06/23 16:16:46;;;;;;;16.37;15.67;;;27.60;60.60;;;;;;4933428;29;21042;-72
2023/06/23 16:19:13;;;;;;;16.37;15.60;;;27.80;60.70;;;;;;4933710;29;20453;-71
2023/06/23 16:21:44;;;;;;;16.40;15.60;;;27.80;60.50;;;;;;4933521;29;20457;-72
2023/06/23 16:24:12;;;;;;;16.13;15.43;;;27.80;60.80;;;;;;4933617;29;20457;-71
2023/06/23 16:26:39;;;;;;;17.27;16.07;;;27.80;61.80;;;;;;4933501;29;20851;-71
2023/06/23 16:29:05;;;;;;;16.33;15.30;;;27.70;63.00;;;;;;4933626;29;20460;-71
2023/06/23 16:31:32;;;;;;;16.60;15.80;;;27.50;63.60;;;;;;4933587;29;20460;-71
2023/06/23 16:34:00;;;;;;;16.30;15.60;;;27.30;64.20;;;;;;4933589;29;20454;-71
2023/06/23 16:36:27;;;;;;;16.20;15.40;;;27.20;65.50;;;;;;4933419;29;20481;-71
2023/06/23 16:38:55;;;;;;;16.03;15.20;;;27.50;65.20;;;;;;4933367;29;20839;-71
2023/06/23 16:41:23;;;;;;;16.30;15.50;;;27.50;63.70;;;;;;4933474;29;20476;-73
2023/06/23 16:43:50;;;;;;;16.33;15.37;;;27.50;63.40;;;;;;4933464;29;20449;-73
2023/06/23 16:46:17;;;;;;;16.20;15.40;;;27.50;64.10;;;;;;4941276;29;20454;-71